Flight Track Log - Related Links

Times and Time Zones

All times are in EDT time to prevent confusion due to time zone crossing. See the SWA1782 flight status page for this flight to view local times or setup timezone preferences in your user account.

Time Position Orientation Groundspeed Altitude Reporting Facility
EDT Latitude Longitude Course Direction KTS MPH feet Rate Location/Type
Sun 04:47:14 PM 26.0750 -80.1367 83° East 163 188 700  Level Miami Center
Sun 04:48:04 PM 26.0803 -80.0906 83° East 199 229 1,900 1,676 Climbing Miami Center
Sun 04:49:05 PM 26.0881 -80.0192 83° East 252 290 3,800 1,792 Climbing Miami Center
Sun 04:49:21 PM 26.0969 -79.9961 67° East 276 318 4,200 3,351 Climbing Miami Center
Sun 04:50:22 PM 26.1319 -79.9208 63° Northeast 293 337 8,100 3,300 Climbing Miami Center
Sun 04:51:21 PM 26.1711 -79.8383 62° Northeast 293 337 10,800 2,773 Climbing Miami Center
Sun 04:52:21 PM 26.2189 -79.7447 60° Northeast 318 366 13,600 3,100 Climbing Miami Center
Sun 04:53:21 PM 26.2733 -79.6369 61° Northeast 346 398 17,000 2,926 Climbing Miami Center
Sun 04:54:22 PM 26.3436 -79.5622 44° Northeast 363 418 19,500 2,250 Climbing Miami Center
Sun 04:55:21 PM 26.4511 -79.5019 27° Northeast 388 447 21,500 2,067 Climbing Miami Center
Sun 04:56:21 PM 26.5464 -79.4461 28° Northeast 409 471 23,600 2,150 Climbing Miami Center
Sun 04:57:21 PM 26.6622 -79.3789 27° Northeast 424 488 25,800 1,983 Climbing Miami Center
Sun 04:58:22 PM 26.7614 -79.3206 28° Northeast 424 488 27,600 1,650 Climbing Miami Center
Sun 04:59:21 PM 26.8775 -79.2578 26° Northeast 443 510 29,100 1,361 Climbing Miami Center
Sun 05:00:21 PM 26.9914 -79.1903 28° Northeast 454 522 30,300 1,750 Climbing Miami Center
Sun 05:01:21 PM 27.0953 -79.0803 43° Northeast 461 531 32,600 1,700 Climbing Miami Center
Sun 05:02:21 PM 27.1578 -78.9600 60° Northeast 459 528 33,700 1,050 Climbing Miami Center
Sun 05:03:21 PM 27.2369 -78.8119 59° Northeast 490 564 34,700 1,100 Climbing Miami Center
Sun 05:04:21 PM 27.3344 -78.7083 43° Northeast 482 555 35,900 1,140 Climbing Miami Center
Sun 05:05:22 PM 27.4578 -78.6964 North 424 488 37,000 1,100 Climbing Miami Center
Sun 05:06:21 PM 27.5833 -78.6842 North 435 501 38,100 1,008 Climbing Miami Center
Sun 05:07:21 PM 27.7089 -78.6697 North 440 506 39,000 450 Climbing Miami Center
Sun 05:08:21 PM 27.8364 -78.6553 North 446 513 39,000 -50 Level Miami Center
Sun 05:09:22 PM 27.9617 -78.6408 North 446 513 38,900  Descending Miami Center
Sun 05:10:21 PM 28.0850 -78.6286 North 446 513 39,000 50 Climbing Miami Center
Sun 05:11:21 PM 28.2083 -78.6142 North 446 513 39,000  Level Miami Center
Sun 05:12:22 PM 28.3358 -78.6019 North 448 516 39,000  Level Miami Center
Sun 05:13:22 PM 28.4614 -78.5875 North 443 510 39,000  Level Miami Center
Sun 05:14:21 PM 28.5847 -78.5703 North 449 517 39,000  Level Miami Center
Sun 05:15:21 PM 28.7122 -78.5606 North 449 517 39,000  Level Miami Center
Sun 05:16:21 PM 28.8375 -78.5458 North 449 517 39,000  Level Miami Center
Sun 05:17:21 PM 28.9628 -78.5336 North 444 511 39,000  Level Miami Center
Sun 05:18:21 PM 29.0819 -78.5164 North 439 505 39,000  Level Miami Center
Sun 05:19:21 PM 29.2114 -78.5064 North 446 513 39,000  Level Miami Center
Sun 05:20:21 PM 29.3306 -78.4867 North 437 503 39,000  Level Miami Center
Sun 05:21:22 PM 29.4581 -78.4744 North 448 516 39,000  Level Miami Center
Sun 05:22:22 PM 29.5833 -78.4619 North 448 516 39,000  Level Miami Center
Sun 05:23:15 PM 29.6733 -78.4397 12° North 434 499 39,000  Level Jacksonville Center
Sun 05:24:15 PM 29.8067 -78.4336 North 446 513 39,000  Level Jacksonville Center
Sun 05:25:15 PM 29.9250 -78.4164 North 440 506 39,000  Level Jacksonville Center
Sun 05:26:15 PM 30.0497 -78.4056 North 445 512 39,000  Level Jacksonville Center
Sun 05:27:15 PM 30.1725 -78.3903 North 439 505 39,000  Level Jacksonville Center
Sun 05:28:15 PM 30.2825 -78.3756 North 425 489 39,000  Level Jacksonville Center
Sun 05:29:15 PM 30.4136 -78.3622 North 433 498 39,000  Level Jacksonville Center
Sun 05:30:15 PM 30.5361 -78.3442 North 441 507 39,000  Level Jacksonville Center
Sun 05:31:16 PM 30.6775 -78.3303 North 449 517 39,000  Level Jacksonville Center
Sun 05:32:15 PM 30.8042 -78.3144 North 454 522 39,000  Level Jacksonville Center
Sun 05:33:15 PM 30.9311 -78.3011 North 460 529 39,000  Level Jacksonville Center
Sun 05:34:15 PM 31.0556 -78.2806 North 455 524 39,000  Level Jacksonville Center
Sun 05:35:15 PM 31.1825 -78.2694 North 455 524 39,000  Level Jacksonville Center
Sun 05:36:15 PM 31.3050 -78.2511 North 455 524 39,000  Level Jacksonville Center
Sun 05:37:15 PM 31.4339 -78.2375 North 460 529 39,000  Level Jacksonville Center
Sun 05:38:15 PM 31.5606 -78.2167 North 460 529 39,000  Level Jacksonville Center
Sun 05:39:15 PM 31.6875 -78.2053 North 460 529 39,000  Level Jacksonville Center
Sun 05:40:15 PM 31.8161 -78.1864 North 460 529 39,000  Level Jacksonville Center
Sun 05:41:15 PM 31.9408 -78.1703 North 460 529 39,000  Level Jacksonville Center
Sun 05:42:15 PM 32.0697 -78.1564 North 460 529 39,000  Level Jacksonville Center
Sun 05:43:15 PM 32.1964 -78.1450 North 460 529 39,000  Level Jacksonville Center
Sun 05:44:15 PM 32.3211 -78.1286 North 460 529 39,000  Level Jacksonville Center
Sun 05:45:15 PM 32.4478 -78.1122 North 460 529 39,000  Level Jacksonville Center
Sun 05:46:15 PM 32.5747 -78.0981 North 460 529 39,000  Level Jacksonville Center
Sun 05:47:15 PM 32.6992 -78.0792 North 460 529 39,000  Level Jacksonville Center
Sun 05:48:15 PM 32.8258 -78.0650 North 460 529 39,000  Level Jacksonville Center
Sun 05:49:15 PM 32.9528 -78.0508 North 460 529 39,000 -250 Level Jacksonville Center
Sun 05:50:15 PM 33.0814 -78.0364 North 460 529 38,500 -750 Descending Jacksonville Center
Sun 05:51:15 PM 33.2019 -78.0197 North 454 522 37,500 -750 Descending Jacksonville Center
Sun 05:52:15 PM 33.3267 -78.0056 North 449 517 37,000 -167 Descending Jacksonville Center
Sun 05:54:15 PM 33.5703 -77.9744 North 432 497 37,000  Level Washington Center
Sun 05:55:16 PM 33.6936 -77.9578 North 427 491 37,000  Level Washington Center
Sun 05:56:16 PM 33.8150 -77.9439 North 427 491 37,000  Level Washington Center
Sun 05:57:17 PM 33.9322 -77.9272 North 442 509 37,000  Level Washington Center
Sun 05:58:18 PM 34.0553 -77.9156 North 447 514 37,000  Level Washington Center
Sun 05:59:19 PM 34.1789 -77.8964 North 447 514 37,000  Level Washington Center
Sun 06:00:17 PM 34.3000 -77.8847 North 441 507 37,000  Level Washington Center
Sun 06:01:17 PM 34.4242 -77.8378 17° North 447 514 37,000  Level Washington Center
Sun 06:02:18 PM 34.5464 -77.7681 25° Northeast 463 533 37,000  Level Washington Center
Sun 06:03:16 PM 34.6708 -77.6981 25° Northeast 479 551 37,000  Level Washington Center
Sun 06:04:16 PM 34.7931 -77.6281 25° Northeast 484 557 37,000  Level Washington Center
Sun 06:05:17 PM 34.9153 -77.5550 26° Northeast 484 557 37,000  Level Washington Center
Sun 06:06:17 PM 35.0372 -77.4869 25° Northeast 484 557 37,000  Level Washington Center
Sun 06:07:18 PM 35.1594 -77.4186 25° Northeast 484 557 37,000  Level Washington Center
Sun 06:08:18 PM 35.2814 -77.3478 25° Northeast 484 557 37,000  Level Washington Center
Sun 06:09:15 PM 35.3992 -77.2789 25° Northeast 478 550 37,000  Level Washington Center
Sun 06:10:16 PM 35.5214 -77.2075 25° Northeast 478 550 37,000  Level Washington Center
Sun 06:11:17 PM 35.6392 -77.1408 25° Northeast 473 544 37,000  Level Washington Center
Sun 06:12:18 PM 35.7589 -77.0714 25° Northeast 468 539 37,000  Level Washington Center
Sun 06:13:18 PM 35.8786 -77.0019 25° Northeast 468 539 37,000  Level Washington Center
Sun 06:14:16 PM 35.9961 -76.9322 26° Northeast 468 539 37,000  Level Washington Center
Sun 06:15:17 PM 36.1158 -76.8622 25° Northeast 468 539 37,000  Level Washington Center
Sun 06:16:18 PM 36.2356 -76.7919 25° Northeast 468 539 37,000  Level Washington Center
Sun 06:17:16 PM 36.3594 -76.7217 25° Northeast 468 539 37,000  Level Washington Center
Sun 06:18:17 PM 36.4789 -76.6511 25° Northeast 468 539 37,000  Level Washington Center
Sun 06:19:17 PM 36.6028 -76.5778 25° Northeast 473 544 37,000  Level Washington Center
Sun 06:20:15 PM 36.7325 -76.4989 26° Northeast 467 537 37,000  Level Washington Center
Sun 06:21:16 PM 36.8436 -76.4303 26° Northeast 475 547 37,000  Level Washington Center
Sun 06:22:17 PM 36.9672 -76.3561 26° Northeast 475 547 37,000  Level Washington Center
Sun 06:23:18 PM 37.0867 -76.2844 26° Northeast 475 547 37,000  Level Washington Center
Sun 06:24:16 PM 37.2058 -76.2125 26° Northeast 475 547 37,000  Level Washington Center
Sun 06:25:17 PM 37.3439 -76.1353 24° Northeast 475 547 37,000  Level Washington Center
Sun 06:26:17 PM 37.4653 -76.0603 26° Northeast 480 552 37,000  Level Washington Center
Sun 06:27:17 PM 37.5864 -75.9850 26° Northeast 485 558 37,000  Level Washington Center
Sun 06:28:18 PM 37.7078 -75.9094 26° Northeast 485 558 37,000  Level Washington Center
Sun 06:29:16 PM 37.8142 -75.8389 28° Northeast 485 558 37,000  Level Washington Center
Sun 06:30:16 PM 37.9500 -75.7631 24° Northeast 485 558 37,000  Level Washington Center
Sun 06:31:17 PM 38.0689 -75.6789 29° Northeast 485 558 37,000  Level Washington Center
Sun 06:32:17 PM 38.1961 -75.6022 25° Northeast 485 558 37,000  Level Washington Center
Sun 06:33:17 PM 38.3192 -75.5308 24° Northeast 485 558 37,000  Level Washington Center
Sun 06:34:18 PM 38.4442 -75.4725 20° North 479 551 37,000  Level Washington Center
Sun 06:35:17 PM 38.5711 -75.4217 17° North 474 545 37,000  Level Washington Center
Sun 06:36:19 PM 38.6961 -75.3656 19° North 469 540 37,000  Level Washington Center
Sun 06:37:16 PM 38.8253 -75.3119 18° North 469 540 37,000  Level Washington Center
Sun 06:38:17 PM 38.9544 -75.2581 18° North 479 551 37,000  Level Washington Center
Sun 06:39:17 PM 39.0856 -75.2039 18° North 484 557 37,000  Level Washington Center
Sun 06:40:18 PM 39.2125 -75.1494 18° North 484 557 37,000  Level Washington Center
Sun 06:41:18 PM 39.3394 -75.0736 25° Northeast 484 557 37,000  Level Washington Center
Sun 06:42:16 PM 39.4494 -74.9653 37° Northeast 480 552 37,000  Level Washington Center
Sun 06:43:16 PM 39.5611 -74.8539 38° Northeast 494 568 37,000 -496 Level Washington Center
Sun 06:44:17 PM 39.6750 -74.7397 38° Northeast 507 583 36,000 -980 Descending Washington Center
Sun 06:44:54 PM 39.7489 -74.6725 35° Northeast 521 600 35,400 -900 Descending New York Center
Sun 06:45:17 PM 39.7908 -74.6247 41° Northeast 513 590 35,100 -942 Descending Washington Center
Sun 06:46:55 PM 39.9667 -74.4517 37° Northeast 523 602 33,500 -981 Descending New York Center
Sun 06:47:56 PM 40.0786 -74.3356 38° Northeast 523 602 32,500 -1,008 Descending New York Center
Sun 06:48:54 PM 40.1981 -74.2439 30° Northeast 511 588 31,500 -763 Descending New York Center
Sun 06:49:54 PM 40.3286 -74.1958 16° North 486 559 31,000 -248 Descending New York Center
Sun 06:50:55 PM 40.4611 -74.1508 14° North 486 559 31,000 -202 Level New York Center
Sun 06:51:53 PM 40.5878 -74.0942 19° North 481 554 30,600 -2,263 Descending New York Center
Sun 06:53:50 PM 40.8014 -73.8522 41° Northeast 545 627 24,400 -2,237 Descending Boston Center
Sun 06:54:50 PM 40.9050 -73.7253 43° Northeast 519 597 24,000 -200 Descending Boston Center
Sun 06:55:50 PM 41.0044 -73.6036 43° Northeast 494 568 24,000 -450 Level Boston Center
Sun 06:56:50 PM 41.1261 -73.5203 27° Northeast 488 562 23,100 -950 Descending Boston Center
Sun 06:57:50 PM 41.2536 -73.4728 16° North 468 539 22,100 -1,000 Descending Boston Center
Sun 06:58:50 PM 41.3792 -73.4222 17° North 468 539 21,100 -1,000 Descending Boston Center
Sun 06:59:50 PM 41.5025 -73.3742 16° North 463 533 20,100 -1,050 Descending Boston Center
Sun 07:00:50 PM 41.6342 -73.3344 13° North 446 513 19,000 -550 Descending Boston Center
Sun 07:01:50 PM 41.7256 -73.3664 345° North 398 458 19,000 -550 Level Boston Center
Sun 07:02:50 PM 41.8378 -73.4125 343° North 383 441 17,900 -1,100 Descending Boston Center
Sun 07:03:50 PM 41.9269 -73.4503 343° North 378 435 16,800 -1,500 Descending Boston Center
Sun 07:04:50 PM 42.0369 -73.4967 343° North 378 435 14,900 -1,682 Descending Boston Center
Sun 07:06:02 PM 42.1325 -73.5264 347° North 367 422 13,100 -1,625 Descending Boston Center
Sun 07:07:14 PM 42.2725 -73.4978 North 352 405 11,000 -1,250 Descending Boston Center
Sun 07:08:02 PM 42.3306 -73.5325 336° Northwest 297 342 10,600 -1,167 Descending Boston Center
Sun 07:09:02 PM 42.3861 -73.5953 320° Northwest 272 313 8,900 -1,750 Descending Boston Center
Sun 07:10:02 PM 42.4378 -73.6525 321° Northwest 261 300 7,100 -2,000 Descending Boston Center
Sun 07:11:02 PM 42.4975 -73.7214 320° Northwest 261 300 4,900 -2,160 Descending Boston Center
Sun 07:11:17 PM 42.5117 -73.7386 318° Northwest 263 303 4,400 -1,000 Descending Boston Center
Sun 07:12:02 PM 42.5594 -73.7678 336° Northwest 256 295 3,900 -689 Descending Boston Center
Sun 07:12:18 PM 42.5739 -73.7764 336° Northwest 233 268 3,700 -600 Descending Boston Center
Sun 07:13:02 PM 42.6133 -73.7858 350° North 226 260 3,300 -900 Descending Boston Center
Sun 07:13:18 PM 42.6236 -73.7917 337° Northwest 173 199 2,800 -600 Descending Boston Center
Sun 07:14:02 PM 42.6608 -73.8150 335° Northwest 210 242 2,700 -1,180 Descending Boston Center
Sun 07:14:19 PM 42.6672 -73.8039 52° Northeast 151 174 1,600 -1,462 Descending Boston Center
Sun 07:15:20 PM 42.7069 -73.8047 359° North 135 155 800 -787 Descending Boston Center

Login

Don't have an account? Register now (free) for customized features, flight alerts, and more!